Time;durP1;ratioP1;P1;durP2;ratioP2;P2;SDS_P1;SDS_P2;PMS_P1;PMS_P2;Temp;Humidity;BMP_temperature;BMP_pressure;BME280_temperature;BME280_humidity;BME280_pressure;Samples;Min_cycle;Max_cycle;Signal;HPM_P1;HPM_P2
2022/05/27 00:01:22;;;;;;;5.47;1.63;;;;;;;17.66;100.00;99373.63;5076778;28;20197;-82
2022/05/27 00:03:51;;;;;;;5.37;1.63;;;;;;;17.64;100.00;99375.59;5072897;28;20206;-82
2022/05/27 00:06:20;;;;;;;4.43;1.40;;;;;;;17.51;100.00;99366.97;5074377;28;20200;-82
2022/05/27 00:08:48;;;;;;;4.20;1.50;;;;;;;17.54;100.00;99378.25;5073710;28;20188;-82
2022/05/27 00:11:19;;;;;;;2.43;1.43;;;;;;;17.57;100.00;99382.53;5077254;28;20275;-82
2022/05/27 00:13:47;;;;;;;3.30;1.20;;;;;;;17.37;100.00;99381.59;5077414;28;20199;-82
2022/05/27 00:16:16;;;;;;;3.00;1.40;;;;;;;17.43;100.00;99373.00;5068949;28;20204;-82
2022/05/27 00:18:45;;;;;;;4.03;1.43;;;;;;;17.59;100.00;99376.03;5074614;28;20189;-82
2022/05/27 00:21:13;;;;;;;5.00;1.50;;;;;;;17.38;100.00;99361.88;5075836;28;20275;-83
2022/05/27 00:23:43;;;;;;;5.43;2.03;;;;;;;17.35;100.00;99357.63;5075754;28;20219;-82
2022/05/27 00:26:14;;;;;;;6.80;1.90;;;;;;;17.58;100.00;99358.28;5078307;28;20207;-82
2022/05/27 00:28:46;;;;;;;4.17;1.77;;;;;;;17.55;100.00;99358.53;5074496;28;20203;-81
2022/05/27 00:31:18;;;;;;;4.43;1.77;;;;;;;17.57;100.00;99351.22;5075154;28;20220;-82
2022/05/27 00:33:46;;;;;;;6.20;1.50;;;;;;;17.33;100.00;99350.72;5071427;28;20193;-82
2022/05/27 00:36:15;;;;;;;4.37;1.70;;;;;;;17.33;100.00;99350.72;5073827;28;20220;-82
2022/05/27 00:38:44;;;;;;;3.43;1.80;;;;;;;17.31;100.00;99353.53;5072076;28;20204;-82
2022/05/27 00:41:14;;;;;;;4.57;1.40;;;;;;;17.27;100.00;99359.28;5054265;28;20245;-82
2022/05/27 00:43:45;;;;;;;3.17;1.30;;;;;;;17.27;100.00;99354.78;5075496;28;20223;-82
2022/05/27 00:46:19;;;;;;;4.93;1.37;;;;;;;17.39;100.00;99353.72;5073414;28;20211;-82
2022/05/27 00:48:52;;;;;;;4.93;1.60;;;;;;;17.33;100.00;99358.75;5077524;28;20207;-83
2022/05/27 00:51:22;;;;;;;5.57;1.63;;;;;;;17.22;100.00;99362.38;5075314;28;20276;-82
2022/05/27 00:53:55;;;;;;;3.50;1.60;;;;;;;17.39;100.00;99350.19;5080347;28;20246;-82
2022/05/27 00:56:30;;;;;;;4.37;1.50;;;;;;;17.24;100.00;99362.25;5073415;28;20200;-82
2022/05/27 00:59:03;;;;;;;6.10;1.50;;;;;;;17.34;100.00;99355.09;5073245;28;20195;-83
2022/05/27 01:01:34;;;;;;;3.47;1.70;;;;;;;17.14;100.00;99359.53;5070657;28;20272;-83
2022/05/27 01:04:04;;;;;;;4.67;1.67;;;;;;;17.20;100.00;99345.63;5067727;28;20216;-82
2022/05/27 01:06:33;;;;;;;3.63;1.97;;;;;;;17.26;100.00;99342.38;5009000;28;20198;-82
2022/05/27 01:09:01;;;;;;;6.93;1.97;;;;;;;17.30;100.00;99332.25;5009108;28;20190;-82
2022/05/27 01:11:48;;;;;;;5.17;1.67;;;;;;;17.22;100.00;99340.13;5011728;28;20206;-82
2022/05/27 01:14:26;;;;;;;2.33;1.30;;;;;;;17.21;100.00;99333.06;5009964;28;20197;-82
2022/05/27 01:17:11;;;;;;;6.27;2.00;;;;;;;17.17;100.00;99343.19;5017393;28;20285;-82
2022/05/27 01:20:19;;;;;;;5.73;1.60;;;;;;;17.09;100.00;99335.84;5027447;28;20268;-82
2022/05/27 01:23:30;;;;;;;3.97;1.80;;;;;;;17.17;100.00;99332.47;5016014;28;20209;-82
2022/05/27 01:26:28;;;;;;;4.03;1.90;;;;;;;17.19;100.00;99330.53;5032618;28;20683;-82
2022/05/27 01:29:08;;;;;;;7.73;1.60;;;;;;;17.16;100.00;99326.28;5027486;28;20229;-82
2022/05/27 01:31:45;;;;;;;5.97;2.00;;;;;;;17.02;100.00;99321.31;5024856;28;20216;-82
2022/05/27 01:34:20;;;;;;;4.80;1.60;;;;;;;17.06;100.00;99314.69;5031495;28;20311;-83
2022/05/27 01:36:56;;;;;;;6.93;1.80;;;;;;;17.00;100.00;99315.25;5026922;28;20216;-83
2022/05/27 01:39:30;;;;;;;5.87;1.80;;;;;;;16.84;100.00;99314.91;5032035;28;20272;-83
2022/05/27 01:42:03;;;;;;;3.93;1.57;;;;;;;16.81;100.00;99320.53;5032363;28;20220;-82
2022/05/27 01:44:41;;;;;;;5.53;1.87;;;;;;;16.82;100.00;99323.06;5053838;28;20207;-83
2022/05/27 01:47:18;;;;;;;4.37;1.60;;;;;;;16.80;100.00;99325.03;5074075;28;20188;-83
2022/05/27 01:49:54;;;;;;;5.23;1.57;;;;;;;16.88;100.00;99319.00;5072575;28;20188;-83
2022/05/27 01:52:29;;;;;;;2.87;1.53;;;;;;;17.00;100.00;99317.94;5056821;28;20199;-83
2022/05/27 01:55:03;;;;;;;4.90;1.50;;;;;;;16.93;100.00;99314.09;5074655;28;20188;-82
2022/05/27 01:57:37;;;;;;;4.27;1.83;;;;;;;16.81;100.00;99310.66;5073401;28;20204;-83
2022/05/27 02:00:10;;;;;;;6.40;1.63;;;;;;;16.82;100.00;99311.50;5072381;28;20194;-81
2022/05/27 02:02:45;;;;;;;5.70;1.90;;;;;;;16.73;100.00;99309.63;5092457;28;20250;-83
2022/05/27 02:05:20;;;;;;;4.30;1.73;;;;;;;16.84;100.00;99309.53;5071189;28;20240;-83
2022/05/27 02:07:54;;;;;;;4.00;1.63;;;;;;;16.83;100.00;99318.56;5074138;28;20188;-83
2022/05/27 02:10:30;;;;;;;3.40;1.60;;;;;;;16.82;100.00;99315.03;5077123;28;20202;-82
2022/05/27 02:13:06;;;;;;;4.33;1.70;;;;;;;16.73;100.00;99323.84;5069168;28;20212;-83
2022/05/27 02:15:39;;;;;;;5.43;1.70;;;;;;;16.72;100.00;99319.50;5072809;28;20275;-82
2022/05/27 02:18:15;;;;;;;3.37;1.50;;;;;;;16.83;100.00;99326.59;5072767;28;20196;-83
2022/05/27 02:20:50;;;;;;;5.53;1.60;;;;;;;16.84;100.00;99320.25;5072151;28;20271;-83
2022/05/27 02:23:23;;;;;;;4.83;1.80;;;;;;;16.73;100.00;99321.19;5073695;28;20235;-83
2022/05/27 02:25:54;;;;;;;3.77;1.90;;;;;;;16.74;100.00;99324.72;5072219;28;20193;-83
2022/05/27 02:28:27;;;;;;;6.50;2.40;;;;;;;16.65;100.00;99318.28;5073766;28;20204;-83
2022/05/27 02:31:00;;;;;;;7.13;2.67;;;;;;;16.65;100.00;99310.25;5069632;28;20228;-83
2022/05/27 02:36:24;;;;;;;7.07;2.50;;;;;;;16.57;100.00;99310.91;5073392;28;20192;-82
2022/05/27 02:38:53;;;;;;;6.00;2.70;;;;;;;16.53;100.00;99312.19;5073306;28;20286;-83
2022/05/27 02:41:27;;;;;;;6.50;2.67;;;;;;;16.46;100.00;99324.38;5068401;28;20196;-83
2022/05/27 02:44:25;;;;;;;4.60;2.27;;;;;;;16.38;100.00;99315.31;5072931;28;20686;-83
2022/05/27 02:47:04;;;;;;;8.80;2.90;;;;;;;16.36;100.00;99318.13;5071054;28;20192;-82
2022/05/27 02:49:41;;;;;;;7.27;2.70;;;;;;;16.22;100.00;99324.66;5072210;28;20192;-82
2022/05/27 02:52:19;;;;;;;4.00;2.57;;;;;;;16.26;100.00;99317.22;5072852;28;20192;-83
2022/05/27 02:54:58;;;;;;;5.70;2.53;;;;;;;16.20;100.00;99321.22;5070389;28;20207;-82
2022/05/27 02:57:31;;;;;;;11.97;2.40;;;;;;;16.18;100.00;99317.84;5073128;28;20204;-82
2022/05/27 03:00:06;;;;;;;4.80;2.37;;;;;;;16.16;100.00;99319.81;5071506;28;20367;-82
2022/05/27 03:02:34;;;;;;;6.63;2.73;;;;;;;16.13;100.00;99312.06;5073030;28;20199;-83
2022/05/27 03:05:06;;;;;;;6.80;2.40;;;;;;;16.13;100.00;99311.22;5066118;28;20298;-83
2022/05/27 03:07:57;;;;;;;5.03;2.30;;;;;;;16.09;100.00;99307.09;5072975;28;20275;-83
2022/05/27 03:10:34;;;;;;;3.80;2.40;;;;;;;16.02;100.00;99302.28;5072749;28;20197;-83
2022/05/27 03:13:27;;;;;;;6.87;2.30;;;;;;;15.97;100.00;99307.16;5072626;28;20219;-84
2022/05/27 03:16:08;;;;;;;3.73;2.20;;;;;;;15.97;100.00;99307.16;5073005;28;20666;-83
2022/05/27 03:19:00;;;;;;;5.33;2.37;;;;;;;15.97;100.00;99309.81;5067382;28;20200;-82
2022/05/27 03:21:36;;;;;;;5.23;2.20;;;;;;;15.98;100.00;99321.34;5075574;28;20296;-82
2022/05/27 03:24:20;;;;;;;4.47;2.23;;;;;;;16.08;100.00;99316.09;5073070;28;20216;-83
2022/05/27 03:26:59;;;;;;;4.37;1.93;;;;;;;16.00;100.00;99325.59;5071204;28;20208;-83
2022/05/27 03:29:33;;;;;;;4.13;2.00;;;;;;;16.13;100.00;99319.25;5076709;28;20232;-82
2022/05/27 03:32:10;;;;;;;5.07;2.50;;;;;;;16.16;100.00;99317.13;5071033;28;20196;-83
2022/05/27 03:34:44;;;;;;;5.87;2.20;;;;;;;16.28;100.00;99323.28;5069015;28;20197;-83
2022/05/27 03:37:22;;;;;;;6.27;2.37;;;;;;;16.28;100.00;99328.63;5072007;28;20192;-83
2022/05/27 03:39:59;;;;;;;7.00;2.33;;;;;;;16.19;100.00;99327.56;5073026;28;20212;-83
2022/05/27 03:42:29;;;;;;;4.93;2.00;;;;;;;16.21;100.00;99322.97;5072960;28;20200;-82
2022/05/27 03:45:02;;;;;;;4.13;1.97;;;;;;;16.05;100.00;99316.34;5068526;28;20217;-83
2022/05/27 03:47:31;;;;;;;3.23;1.87;;;;;;;16.20;100.00;99323.91;5073037;28;20200;-83
2022/05/27 03:49:59;;;;;;;6.30;2.20;;;;;;;16.06;100.00;99332.25;5071357;28;20200;-83
2022/05/27 03:52:33;;;;;;;4.10;1.80;;;;;;;16.10;100.00;99319.47;5073458;28;20212;-83
2022/05/27 03:55:01;;;;;;;4.13;1.57;;;;;;;16.06;100.00;99323.41;5073123;28;20197;-83
2022/05/27 03:57:31;;;;;;;4.27;1.80;;;;;;;16.14;100.00;99316.44;5078419;28;20279;-84
2022/05/27 04:00:00;;;;;;;4.20;1.90;;;;;;;16.13;100.00;99320.09;5069966;28;20287;-83
2022/05/27 04:02:28;;;;;;;4.20;1.90;;;;;;;16.04;100.00;99315.50;5075805;28;20208;-83
2022/05/27 04:04:56;;;;;;;4.73;2.10;;;;;;;16.12;100.00;99322.88;5071665;28;20679;-82
2022/05/27 04:07:27;;;;;;;4.33;1.90;;;;;;;16.05;100.00;99322.53;5071048;28;20204;-83
2022/05/27 04:09:57;;;;;;;5.17;2.40;;;;;;;16.16;100.00;99325.16;5078603;28;20189;-83
2022/05/27 04:12:25;;;;;;;3.20;1.70;;;;;;;16.19;100.00;99324.03;5076002;28;20209;-83
2022/05/27 04:14:54;;;;;;;6.13;2.17;;;;;;;16.08;100.00;99318.75;5072621;28;20201;-83
2022/05/27 04:17:30;;;;;;;5.80;1.90;;;;;;;16.07;100.00;99311.72;5076478;28;20192;-83
2022/05/27 04:20:00;;;;;;;3.83;2.00;;;;;;;15.92;100.00;99317.41;5071565;28;20192;-83
2022/05/27 04:22:29;;;;;;;4.87;2.17;;;;;;;16.05;100.00;99317.19;5070007;28;20197;-83
2022/05/27 04:24:59;;;;;;;4.57;1.77;;;;;;;16.12;100.00;99314.88;5074951;28;20234;-83
2022/05/27 04:27:28;;;;;;;3.50;2.07;;;;;;;16.09;100.00;99317.78;5076176;28;20215;-83
2022/05/27 04:29:57;;;;;;;4.67;1.83;;;;;;;16.06;100.00;99305.53;5075585;28;20233;-83
2022/05/27 04:32:26;;;;;;;4.67;2.10;;;;;;;16.07;100.00;99328.59;5074340;28;20207;-83
2022/05/27 04:34:56;;;;;;;3.37;1.60;;;;;;;15.95;100.00;99317.13;5075520;28;20192;-82
2022/05/27 04:37:26;;;;;;;6.50;1.60;;;;;;;16.01;100.00;99318.41;5076096;28;20203;-83
2022/05/27 04:39:54;;;;;;;5.77;2.10;;;;;;;16.02;100.00;99307.63;5079248;28;20205;-83
2022/05/27 04:42:24;;;;;;;4.97;1.90;;;;;;;15.78;100.00;99325.69;5076299;28;20271;-83
2022/05/27 04:44:52;;;;;;;5.23;1.50;;;;;;;15.94;100.00;99341.31;5073218;28;20212;-83
2022/05/27 04:47:21;;;;;;;3.07;1.50;;;;;;;15.98;100.00;99332.88;5075674;28;20204;-83
2022/05/27 04:49:53;;;;;;;3.87;1.80;;;;;;;15.98;100.00;99324.88;5074138;28;20667;-83
2022/05/27 04:52:25;;;;;;;3.23;1.50;;;;;;;15.95;100.00;99333.16;5075919;28;20215;-83
2022/05/27 04:54:55;;;;;;;3.43;1.73;;;;;;;15.94;100.00;99330.63;5075527;28;20196;-83
2022/05/27 04:57:31;;;;;;;3.53;1.40;;;;;;;16.01;100.00;99329.94;5078178;28;20200;-82
2022/05/27 05:00:02;;;;;;;3.57;1.80;;;;;;;15.89;100.00;99332.81;5080530;28;20199;-83
2022/05/27 05:02:30;;;;;;;4.00;1.50;;;;;;;15.86;100.00;99333.06;5057633;28;20639;-82
2022/05/27 05:05:07;;;;;;;4.20;1.57;;;;;;;15.88;100.00;99333.78;5074286;28;20234;-83
2022/05/27 05:07:37;;;;;;;6.00;1.60;;;;;;;15.84;100.00;99332.34;5075975;28;20200;-84
2022/05/27 05:10:07;;;;;;;4.13;1.40;;;;;;;15.79;100.00;99331.88;5079570;28;20196;-83
2022/05/27 05:12:38;;;;;;;3.50;1.70;;;;;;;15.70;100.00;99334.34;5072749;28;20207;-83
2022/05/27 05:15:08;;;;;;;3.30;1.43;;;;;;;15.76;100.00;99332.13;5075306;28;20200;-82
2022/05/27 05:17:36;;;;;;;2.00;1.30;;;;;;;15.91;100.00;99334.38;5069307;28;20262;-83
2022/05/27 05:20:05;;;;;;;3.70;1.40;;;;;;;15.93;100.00;99329.78;5071942;28;20208;-83
2022/05/27 05:22:34;;;;;;;4.53;1.40;;;;;;;15.86;100.00;99333.91;5075287;28;20189;-83
2022/05/27 05:25:02;;;;;;;4.10;1.50;;;;;;;15.81;100.00;99322.75;5075481;28;20216;-83
2022/05/27 05:27:31;;;;;;;5.07;1.70;;;;;;;15.79;100.00;99331.88;5077587;28;20204;-83
2022/05/27 05:30:01;;;;;;;4.07;1.43;;;;;;;15.81;100.00;99335.25;5078043;28;20220;-83
2022/05/27 05:32:29;;;;;;;2.67;1.40;;;;;;;15.88;100.00;99348.00;5072300;28;20200;-84
2022/05/27 05:34:59;;;;;;;2.27;1.40;;;;;;;15.74;100.00;99354.50;5073081;28;20231;-84
2022/05/27 05:37:28;;;;;;;3.60;1.50;;;;;;;15.60;100.00;99351.19;5075235;28;20188;-83
2022/05/27 05:39:57;;;;;;;2.90;1.50;;;;;;;15.42;100.00;99350.88;5075376;28;20659;-83
2022/05/27 05:42:25;;;;;;;4.63;1.47;;;;;;;15.41;100.00;99350.03;5031736;28;20205;-83
2022/05/27 05:44:55;;;;;;;3.00;1.77;;;;;;;15.28;100.00;99368.00;5033945;28;20222;-83
2022/05/27 05:47:26;;;;;;;3.10;1.63;;;;;;;14.98;100.00;99386.44;5036044;28;20688;-83
2022/05/27 05:49:54;;;;;;;3.20;1.77;;;;;;;14.93;100.00;99393.94;5031551;28;20200;-83
2022/05/27 05:52:24;;;;;;;3.87;1.70;;;;;;;14.59;100.00;99415.25;5032515;28;20213;-84
2022/05/27 05:54:52;;;;;;;2.40;1.67;;;;;;;14.62;100.00;99414.16;5026952;28;20209;-83
2022/05/27 05:57:21;;;;;;;2.60;1.87;;;;;;;14.62;100.00;99416.81;5032670;28;20205;-83
2022/05/27 05:59:49;;;;;;;4.13;1.83;;;;;;;14.58;100.00;99421.53;5035998;28;20193;-83
2022/05/27 06:02:18;;;;;;;3.30;2.13;;;;;;;14.62;100.00;99428.31;5074428;28;20197;-83
2022/05/27 06:04:48;;;;;;;3.30;2.27;;;;;;;14.59;100.00;99425.91;5072936;28;20220;-82
2022/05/27 06:07:16;;;;;;;5.27;2.43;;;;;;;14.38;100.00;99439.00;5070104;28;20202;-83
2022/05/27 06:09:44;;;;;;;5.33;2.50;;;;;;;14.59;100.00;99437.41;5074073;28;20185;-83
2022/05/27 06:12:15;;;;;;;3.53;1.97;;;;;;;14.66;100.00;99439.59;5077519;28;20211;-82
2022/05/27 06:14:43;;;;;;;5.27;1.67;;;;;;;14.67;100.00;99444.84;5074171;28;20197;-84
2022/05/27 06:17:12;;;;;;;5.97;2.30;;;;;;;14.74;100.00;99447.84;5071365;28;20200;-83
2022/05/27 06:19:41;;;;;;;2.67;1.80;;;;;;;14.71;100.00;99453.44;5069044;28;20248;-83
2022/05/27 06:22:11;;;;;;;3.40;2.10;;;;;;;14.75;100.00;99452.22;5070334;28;20283;-83
2022/05/27 06:24:39;;;;;;;4.47;2.20;;;;;;;14.68;100.00;99456.34;5072240;28;20199;-83
2022/05/27 06:27:08;;;;;;;3.03;2.20;;;;;;;14.72;100.00;99447.97;5072573;28;20192;-84
2022/05/27 06:35:08;;;;;;;3.73;2.40;;;;;;;14.79;100.00;99459.03;5072606;28;20199;-84
2022/05/27 06:37:38;;;;;;;3.10;2.37;;;;;;;15.05;100.00;99465.00;5076373;28;20226;-84
2022/05/27 06:40:08;;;;;;;3.77;2.50;;;;;;;15.20;100.00;99455.81;5065036;28;20200;-85
2022/05/27 06:42:38;;;;;;;6.27;2.70;;;;;;;15.22;100.00;99461.03;5078702;28;20207;-83
2022/05/27 06:45:09;;;;;;;4.10;2.10;;;;;;;15.18;100.00;99455.94;5073607;28;20250;-84
2022/05/27 06:47:38;;;;;;;4.20;2.33;;;;;;;14.94;100.00;99462.31;5073930;28;20647;-84
2022/05/27 06:50:09;;;;;;;2.30;1.87;;;;;;;15.04;100.00;99471.31;5030784;28;20228;-84
2022/05/27 06:52:41;;;;;;;2.30;1.70;;;;;;;14.89;100.00;99460.03;5032043;28;20280;-84
2022/05/27 06:55:10;;;;;;;2.70;1.70;;;;;;;14.99;100.00;99455.69;5031745;28;20686;-84
2022/05/27 06:57:39;;;;;;;1.70;1.60;;;;;;;14.71;100.00;99454.28;5034148;28;20204;-84
2022/05/27 07:00:09;;;;;;;2.50;1.40;;;;;;;15.13;100.00;99468.78;5031853;28;20210;-84
2022/05/27 07:02:38;;;;;;;2.33;1.50;;;;;;;14.69;100.00;99456.22;5029695;28;20193;-85
2022/05/27 07:05:07;;;;;;;3.60;1.30;;;;;;;15.08;100.00;99462.97;5013684;28;20210;-85
2022/05/27 07:07:36;;;;;;;2.90;1.50;;;;;;;15.03;100.00;99461.63;5015528;28;20276;-85
2022/05/27 07:10:07;;;;;;;1.47;1.30;;;;;;;14.86;100.00;99461.13;5046920;28;20300;-87
2022/05/27 07:12:39;;;;;;;1.47;1.20;;;;;;;14.82;100.00;99451.63;5019275;28;20300;-85
2022/05/27 07:15:08;;;;;;;1.13;1.10;;;;;;;15.18;100.00;99471.13;5049145;28;20292;-85
2022/05/27 07:17:37;;;;;;;1.60;1.40;;;;;;;15.11;100.00;99468.06;5052130;28;20196;-85
2022/05/27 07:20:06;;;;;;;2.67;1.23;;;;;;;15.04;100.00;99461.50;5047773;28;20201;-86
2022/05/27 07:22:35;;;;;;;2.00;1.40;;;;;;;15.08;100.00;99454.13;5048966;28;20645;-84
2022/05/27 07:25:06;;;;;;;2.00;1.20;;;;;;;15.07;100.00;99452.44;5051283;28;20276;-87
2022/05/27 07:27:34;;;;;;;1.37;1.13;;;;;;;15.26;100.00;99450.03;5018655;28;20295;-83
2022/05/27 07:30:03;;;;;;;0.90;0.90;;;;;;;15.48;100.00;99443.81;5066022;28;20232;-87
2022/05/27 07:32:34;;;;;;;1.00;0.87;;;;;;;15.22;100.00;99451.22;5078938;28;20283;-91
2022/05/27 07:35:02;;;;;;;2.63;1.10;;;;;;;14.99;100.00;99438.84;5072737;28;20201;-81
2022/05/27 07:37:30;;;;;;;2.10;1.57;;;;;;;14.95;100.00;99448.88;5072432;28;20192;-80
2022/05/27 07:39:58;;;;;;;1.10;1.00;;;;;;;15.02;100.00;99451.91;5071216;28;20635;-81
2022/05/27 07:42:28;;;;;;;2.80;1.20;;;;;;;15.33;100.00;99443.19;5075857;28;20207;-81
2022/05/27 07:44:56;;;;;;;2.10;1.30;;;;;;;15.18;100.00;99452.44;5076960;28;20199;-84
2022/05/27 07:47:26;;;;;;;1.30;1.17;;;;;;;15.17;100.00;99454.25;5077330;28;20224;-82
2022/05/27 07:49:55;;;;;;;1.90;1.30;;;;;;;14.93;100.00;99433.97;5067771;28;20211;-81
2022/05/27 07:52:23;;;;;;;2.20;1.13;;;;;;;15.34;100.00;99458.25;5071205;28;20203;-82
2022/05/27 07:54:54;;;;;;;1.23;0.90;;;;;;;15.32;100.00;99446.84;5076811;28;20200;-82
2022/05/27 07:57:25;;;;;;;2.73;1.10;;;;;;;15.61;100.00;99443.72;5073423;28;20245;-82
2022/05/27 08:00:14;;;;;;;1.20;1.10;;;;;;;15.32;100.00;99438.84;5078518;28;20275;-83
2022/05/27 08:02:42;;;;;;;1.40;1.20;;;;;;;15.35;100.00;99432.44;5079147;28;20212;-83
2022/05/27 08:05:16;;;;;;;1.93;1.23;;;;;;;15.27;100.00;99432.19;5074359;28;20193;-83
2022/05/27 08:07:45;;;;;;;1.97;1.03;;;;;;;15.14;100.00;99422.44;5081465;28;20221;-83
2022/05/27 08:10:15;;;;;;;2.50;1.13;;;;;;;15.33;100.00;99429.00;5074808;28;20196;-83
2022/05/27 08:12:44;;;;;;;1.20;1.10;;;;;;;15.57;100.00;99440.41;5057940;28;20203;-83
2022/05/27 08:15:17;;;;;;;1.23;1.13;;;;;;;15.42;100.00;99442.47;5072683;28;20200;-83
2022/05/27 08:17:46;;;;;;;1.50;1.00;;;;;;;15.37;100.00;99436.66;5075548;28;20197;-83
2022/05/27 08:20:18;;;;;;;1.17;1.07;;;;;;;15.30;100.00;99431.94;5074335;28;20204;-83
2022/05/27 08:22:47;;;;;;;1.47;1.20;;;;;;;15.12;100.00;99436.91;5075536;28;20234;-82
2022/05/27 08:25:15;;;;;;;1.90;1.30;;;;;;;15.20;100.00;99439.81;5077627;28;20253;-83
2022/05/27 08:27:44;;;;;;;1.57;1.10;;;;;;;15.29;100.00;99440.91;5077964;28;20212;-82
2022/05/27 08:30:15;;;;;;;2.67;1.30;;;;;;;15.16;100.00;99443.72;5075347;28;20232;-82
2022/05/27 08:32:48;;;;;;;2.97;1.20;;;;;;;15.20;100.00;99447.81;5075429;28;20207;-84
2022/05/27 08:38:07;;;;;;;1.20;1.10;;;;;;;15.28;100.00;99442.75;5076155;28;20196;-83
2022/05/27 08:40:46;;;;;;;1.20;1.10;;;;;;;15.52;100.00;99455.94;5075740;28;20271;-83
2022/05/27 08:43:21;;;;;;;1.93;1.17;;;;;;;15.49;100.00;99447.34;5075570;28;20279;-82
2022/05/27 08:45:59;;;;;;;1.70;1.20;;;;;;;15.47;100.00;99442.13;5075246;28;20188;-82
2022/05/27 08:48:38;;;;;;;2.97;1.50;;;;;;;15.28;100.00;99433.88;5076671;28;20212;-83
2022/05/27 08:51:31;;;;;;;3.30;1.40;;;;;;;15.17;100.00;99440.06;5075707;28;20364;-83
2022/05/27 08:54:05;;;;;;;1.40;1.30;;;;;;;15.21;100.00;99451.34;5074597;28;20211;-83
2022/05/27 08:59:31;;;;;;;1.70;1.30;;;;;;;15.60;100.00;99448.22;5075355;28;20648;-83
2022/05/27 09:02:04;;;;;;;1.40;1.20;;;;;;;15.34;100.00;99444.91;5074739;28;20196;-83
2022/05/27 09:04:41;;;;;;;1.93;1.23;;;;;;;14.96;100.00;99455.06;5069874;28;20231;-82
2022/05/27 09:07:30;;;;;;;1.50;1.20;;;;;;;15.18;100.00;99466.63;5080630;28;20643;-82
2022/05/27 09:09:59;;;;;;;1.80;1.30;;;;;;;15.22;100.00;99458.38;5075165;28;20207;-82
2022/05/27 09:12:39;;;;;;;2.40;1.30;;;;;;;15.38;100.00;99458.88;5075097;28;20259;-82
2022/05/27 09:15:39;;;;;;;1.53;1.17;;;;;;;15.46;100.00;99462.63;5070486;28;20203;-83
2022/05/27 09:18:15;;;;;;;1.70;1.23;;;;;;;15.77;100.00;99468.22;5017695;28;20207;-83
2022/05/27 09:20:55;;;;;;;3.07;1.30;;;;;;;15.64;100.00;99457.69;5069652;28;20196;-82
2022/05/27 09:24:01;;;;;;;2.20;1.17;;;;;;;15.62;100.00;99453.41;5073361;28;20721;-82
2022/05/27 09:26:38;;;;;;;1.90;1.20;;;;;;;15.61;100.00;99462.41;5067443;28;20196;-83
2022/05/27 09:29:23;;;;;;;1.23;1.10;;;;;;;15.66;100.00;99455.75;5074786;28;20415;-83
2022/05/27 09:31:55;;;;;;;0.93;0.90;;;;;;;15.79;100.00;99454.75;5073682;28;20204;-82
2022/05/27 09:34:29;;;;;;;1.73;0.97;;;;;;;15.59;100.00;99449.16;5076341;28;20208;-82
2022/05/27 09:37:02;;;;;;;1.67;1.07;;;;;;;15.75;100.00;99467.50;5074182;28;20200;-82
2022/05/27 09:39:32;;;;;;;1.80;0.83;;;;;;;15.63;100.00;99471.13;5071870;28;20197;-81
2022/05/27 09:42:12;;;;;;;3.87;3.13;;;;;;;15.62;100.00;99472.97;5073875;28;20211;-82
2022/05/27 09:44:48;;;;;;;2.17;1.20;;;;;;;15.29;100.00;99476.47;5073997;28;20233;-82
2022/05/27 09:47:17;;;;;;;2.40;1.50;;;;;;;15.24;100.00;99483.97;5073607;28;20216;-82
2022/05/27 09:49:50;;;;;;;7.53;5.57;;;;;;;14.83;100.00;99481.81;5074986;28;20196;-81
2022/05/27 09:52:23;;;;;;;6.07;3.50;;;;;;;14.72;100.00;99481.78;5073882;28;20198;-81
2022/05/27 09:54:55;;;;;;;5.83;3.07;;;;;;;14.86;100.00;99493.13;5073525;28;20192;-80
2022/05/27 09:57:25;;;;;;;2.10;1.83;;;;;;;15.25;100.00;99485.69;5073971;28;20228;-81
2022/05/27 09:59:56;;;;;;;3.03;1.50;;;;;;;15.46;100.00;99485.81;5073868;28;20222;-81
2022/05/27 10:02:30;;;;;;;3.67;1.97;;;;;;;16.01;100.00;99487.59;5070737;28;20208;-81
2022/05/27 10:05:02;;;;;;;2.43;1.50;;;;;;;16.22;100.00;99494.88;5072620;28;20196;-81
2022/05/27 10:07:38;;;;;;;2.27;1.27;;;;;;;16.51;100.00;99487.13;5074614;28;20224;-81
2022/05/27 10:10:24;;;;;;;2.83;1.30;;;;;;;16.88;100.00;99474.19;5072428;28;20188;-81
2022/05/27 10:12:54;;;;;;;2.07;1.03;;;;;;;16.59;100.00;99477.44;5073602;28;20225;-81
2022/05/27 10:15:35;;;;;;;1.10;1.03;;;;;;;16.37;100.00;99449.97;5071595;28;20306;-82
2022/05/27 10:18:18;;;;;;;1.17;0.90;;;;;;;16.66;100.00;99442.16;5072370;28;20196;-81
2022/05/27 10:20:52;;;;;;;1.73;0.90;;;;;;;16.90;100.00;99441.97;5073159;28;20223;-81
2022/05/27 10:23:36;;;;;;;1.43;1.03;;;;;;;17.30;100.00;99423.28;5073276;28;20204;-81
2022/05/27 10:26:21;;;;;;;1.87;1.30;;;;;;;17.52;100.00;99415.06;5073557;28;20188;-81
2022/05/27 10:28:58;;;;;;;1.30;1.20;;;;;;;17.69;100.00;99408.19;5073099;28;20223;-81
2022/05/27 10:31:27;;;;;;;1.53;1.30;;;;;;;17.91;100.00;99407.16;5073018;28;20292;-81
2022/05/27 10:33:56;;;;;;;3.77;1.63;;;;;;;17.26;100.00;99411.13;5070869;28;20260;-81
2022/05/27 10:36:46;;;;;;;3.13;1.70;;;;;;;17.22;100.00;99410.56;5073276;28;20741;-81
2022/05/27 10:39:23;;;;;;;2.50;1.83;;;;;;;17.19;100.00;99407.31;5068803;28;20661;-81
2022/05/27 10:42:16;;;;;;;3.50;1.60;;;;;;;17.39;100.00;99415.31;5073082;28;20192;-82
2022/05/27 10:44:59;;;;;;;4.43;1.90;;;;;;;18.10;100.00;99403.66;5071754;28;20227;-81
2022/05/27 10:47:44;;;;;;;4.07;1.87;;;;;;;18.28;100.00;99408.16;5074329;28;20220;-82
2022/05/27 10:50:20;;;;;;;1.90;1.60;;;;;;;18.73;100.00;99398.72;5072920;28;20207;-82
2022/05/27 10:53:07;;;;;;;5.97;2.10;;;;;;;18.81;100.00;99396.97;5073097;28;20196;-82
2022/05/27 10:55:46;;;;;;;4.57;1.93;;;;;;;18.24;100.00;99392.50;5073001;28;20203;-83
2022/05/27 11:02:05;;;;;;;3.80;1.90;;;;;;;18.57;100.00;99397.41;5070984;28;20199;-82
2022/05/27 11:05:02;;;;;;;5.10;2.07;;;;;;;18.97;100.00;99392.84;5071871;28;20554;-82
2022/05/27 11:07:39;;;;;;;3.20;1.80;;;;;;;19.35;100.00;99392.72;5072685;28;20243;-83
2022/05/27 11:10:24;;;;;;;3.23;1.63;;;;;;;18.49;100.00;99408.00;5073093;28;20299;-82
2022/05/27 11:16:03;;;;;;;3.27;1.80;;;;;;;18.38;100.00;99394.75;5074030;28;20195;-82
2022/05/27 11:18:46;;;;;;;4.43;1.77;;;;;;;18.39;100.00;99406.34;5075143;28;20223;-83
2022/05/27 11:21:33;;;;;;;5.13;1.90;;;;;;;18.39;100.00;99404.50;5076769;28;20199;-82
2022/05/27 11:24:35;;;;;;;7.97;2.10;;;;;;;18.60;100.00;99383.72;5058798;28;20196;-83
2022/05/27 11:27:13;;;;;;;2.73;1.70;;;;;;;18.93;100.00;99373.50;5073546;28;20206;-82
2022/05/27 11:30:03;;;;;;;4.23;1.90;;;;;;;18.45;100.00;99395.88;5076674;28;20226;-82
2022/05/27 11:32:56;;;;;;;4.30;1.70;;;;;;;18.96;100.00;99397.38;5074804;28;20204;-83
2022/05/27 11:35:36;;;;;;;2.70;1.67;;;;;;;18.50;100.00;99396.28;5075919;28;20199;-83
2022/05/27 11:38:22;;;;;;;4.33;1.90;;;;;;;18.95;100.00;99393.00;5076266;28;20192;-83
2022/05/27 11:41:01;;;;;;;3.40;1.73;;;;;;;18.70;100.00;99380.19;5078947;28;20204;-82
2022/05/27 11:43:48;;;;;;;4.17;2.00;;;;;;;18.67;100.00;99389.38;5075780;28;20200;-83
2022/05/27 11:46:36;;;;;;;4.20;2.00;;;;;;;18.83;100.00;99391.50;5076780;28;20284;-82
2022/05/27 11:49:23;;;;;;;5.13;2.00;;;;;;;19.23;100.00;99387.69;5075417;28;20223;-82
2022/05/27 11:52:02;;;;;;;5.03;1.80;;;;;;;19.72;100.00;99373.03;5076310;28;20196;-82
2022/05/27 11:54:49;;;;;;;5.63;2.20;;;;;;;19.35;100.00;99365.84;5074193;28;20194;-82
2022/05/27 11:57:30;;;;;;;3.33;1.60;;;;;;;19.63;100.00;99374.78;5075894;28;20258;-82
2022/05/27 12:00:03;;;;;;;4.17;1.90;;;;;;;20.40;100.00;99373.34;5073953;28;20195;-82
2022/05/27 12:02:39;;;;;;;5.17;1.90;;;;;;;20.23;100.00;99371.50;5076113;28;20196;-83
2022/05/27 12:05:13;;;;;;;4.00;1.90;;;;;;;19.68;100.00;99369.78;5072373;28;20216;-83
2022/05/27 12:07:48;;;;;;;3.63;1.93;;;;;;;20.09;100.00;99367.53;5075886;28;20207;-81
2022/05/27 12:10:23;;;;;;;4.63;1.80;;;;;;;20.36;100.00;99354.97;5075798;28;20218;-82
2022/05/27 12:12:58;;;;;;;3.43;1.70;;;;;;;20.07;100.00;99357.91;5076467;28;20204;-82
2022/05/27 12:15:34;;;;;;;4.03;2.00;;;;;;;20.12;100.00;99350.25;5076226;28;20203;-80
2022/05/27 12:18:09;;;;;;;4.07;1.93;;;;;;;20.53;100.00;99343.38;5074645;28;20231;-80